Statengracht — PHAQ — position and weather

sailwx.info

Track history (hours):
 
Tides and Currents Weather Stations Pressure Air Temp Water Temp Dewpoint Dewpoint Depression Visibility Wind Speed Wind Dir Waves Ship Positions

Statengracht

Last reported at 2019-Jun-16 23:25 UTC. Time now 2019-Jun-18 15:42 UTC.
Position N 60°27' E 022°02'.

Length 173 m; beam 25 m.

Type: Cargo ship. MMSI: 244584000.

Date/timePositionNaut miles runAvg speedWind from/ knotsBaromVisibWave heightAir tempDewpointWater temp
2019-Jun-16 23:25N 60°27' E 022°02'0 0.0
2019-Jun-16 22:49N 60°27' E 022°02'0 0.0
2019-Jun-16 19:49N 60°27' E 022°02'  
2019-Jun-13 04:37N 60°13' E 021°42'111.7
2019-Jun-13 04:29N 60°12' E 021°42'511.5
2019-Jun-13 04:01N 60°06' E 021°42'612.3
2019-Jun-13 03:31N 59°60' E 021°42'714.0
2019-Jun-13 03:01N 59°54' E 021°34'714.0
2019-Jun-13 02:30N 59°50' E 021°23'5 9.8
2019-Jun-13 01:59N 59°45' E 021°21'611.6
2019-Jun-13 01:30N 59°40' E 021°18'611.2
2019-Jun-13 01:00N 59°35' E 021°13'510.9
2019-Jun-13 00:30N 59°30' E 021°08'20410.4
2019-Jun-12 04:49N 56°33' E 017°54'1710.8
2019-Jun-12 03:15N 56°23' E 017°30'410.7
2019-Jun-12 02:50N 56°20' E 017°24'910.7
2019-Jun-12 02:00N 56°14' E 017°11'510.6
2019-Jun-12 01:30N 56°11' E 017°03'510.5
2019-Jun-12 01:00N 56°08' E 016°56'510.8
2019-Jun-12 00:30N 56°05' E 016°48'510.7
2019-Jun-12 00:00N 56°01' E 016°41'510.7
2019-Jun-11 23:30N 55°59' E 016°33'510.7
2019-Jun-11 23:00N 55°56' E 016°24'510.6
2019-Jun-11 22:30N 55°54' E 016°16'510.6
2019-Jun-11 22:01N 55°51' E 016°08'510.8
2019-Jun-11 21:30N 55°49' E 015°59'611.1
2019-Jun-11 21:00N 55°46' E 015°50'510.6
2019-Jun-11 20:31N 55°44' E 015°42'510.5
2019-Jun-11 20:00N 55°41' E 015°34'510.8
2019-Jun-11 19:30N 55°38' E 015°25'510.7
2019-Jun-11 19:00N 55°36' E 015°17'510.7
2019-Jun-11 18:30N 55°34' E 015°08'710.6
2019-Jun-11 17:48N 55°30' E 014°57'410.7
2019-Jun-11 17:28N 55°28' E 014°51'1710.9
2019-Jun-11 15:52N 55°17' E 014°29'1012.1
2019-Jun-11 15:00N 55°09' E 014°17'911.2
2019-Jun-11 14:10N 55°10' E 014°01'410.6
2019-Jun-11 13:48N 55°10' E 013°54'3010.9
2019-Jun-11 10:59N 55°13' E 013°01'611.4
2019-Jun-11 10:27N 55°15' E 012°51'511.1
2019-Jun-11 10:00N 55°17' E 012°43'4 8.8
2019-Jun-11 09:30N 55°20' E 012°38'611.2
2019-Jun-11 09:00N 55°26' E 012°40'612.4
2019-Jun-11 08:30N 55°32' E 012°42'4 8.7
2019-Jun-11 08:00N 55°36' E 012°42'4 8.7
2019-Jun-11 07:30N 55°41' E 012°41'510.6
2019-Jun-11 07:00N 55°46' E 012°41'713.4
2019-Jun-11 06:31N 55°53' E 012°40'714.0
2019-Jun-11 06:01N 55°60' E 012°38'5 9.8
2019-Jun-11 05:31N 56°04' E 012°37'5 9.4
2019-Jun-11 05:00N 56°07' E 012°30'812.9
2019-Jun-11 04:23N 56°12' E 012°18'3212.6
2019-Jun-11 01:52N 56°41' E 011°54'613.1
2019-Jun-11 01:23N 56°47' E 011°51'513.0
2019-Jun-11 01:01N 56°51' E 011°48'713.1
2019-Jun-11 00:30N 56°57' E 011°44'713.4
2019-Jun-11 00:00N 57°04' E 011°40'713.2
2019-Jun-10 23:30N 57°10' E 011°35'713.2
2019-Jun-10 23:01N 57°16' E 011°31'713.1
2019-Jun-10 22:31N 57°22' E 011°27'713.3
2019-Jun-10 22:01N 57°28' E 011°22'713.2
2019-Jun-10 21:31N 57°33' E 011°13'612.9
2019-Jun-10 21:01N 57°37' E 011°04'713.3
2019-Jun-10 20:31N 57°42' E 010°55'713.4
2019-Jun-10 20:01N 57°47' E 010°47'510.5
2019-Jun-10 19:30N 57°48' E 010°37'714.2
2019-Jun-10 19:00N 57°48' E 010°24'713.9
2019-Jun-10 18:30N 57°47' E 010°11'713.9
2019-Jun-10 18:01N 57°47' E 009°58'713.6
2019-Jun-10 17:30N 57°46' E 009°45'713.6
2019-Jun-10 17:01N 57°46' E 009°32'713.4
2019-Jun-10 16:30N 57°45' E 009°20'713.7
2019-Jun-10 16:00N 57°44' E 009°07'714.9
2019-Jun-10 15:30N 57°44' E 008°53'714.5
2019-Jun-10 15:00N 57°43' E 008°40'713.7
2019-Jun-10 14:30N 57°42' E 008°27'713.6
2019-Jun-10 14:00N 57°42' E 008°14'713.2
2019-Jun-10 13:30N 57°41' E 008°02'713.2
2019-Jun-10 13:00N 57°41' E 007°49'713.3
2019-Jun-10 12:30N 57°41' E 007°37'713.3
2019-Jun-10 11:58N 57°41' E 007°24'612.9
2019-Jun-10 11:30N 57°41' E 007°13'713.3
2019-Jun-10 11:00N 57°42' E 006°60'713.0
2019-Jun-10 10:29N 57°43' E 006°47'613.1
2019-Jun-10 10:00N 57°43' E 006°36'612.0
2019-Jun-10 09:30N 57°44' E 006°25'611.7
2019-Jun-10 08:58N 57°45' E 006°13'511.4
2019-Jun-10 08:30N 57°46' E 006°03'611.7
2019-Jun-10 08:00N 57°47' E 005°53'611.9
2019-Jun-10 07:29N 57°48' E 005°41'612.8
2019-Jun-10 07:00N 57°49' E 005°30'713.1
2019-Jun-10 06:30N 57°50' E 005°18'713.4
2019-Jun-10 06:00N 57°52' E 005°05'713.7
2019-Jun-10 05:30N 57°53' E 004°52'713.7
2019-Jun-10 05:00N 57°54' E 004°40'713.9
2019-Jun-10 04:30N 57°55' E 004°27'713.8
2019-Jun-10 04:00N 57°57' E 004°14'713.7
2019-Jun-10 03:30N 57°58' E 004°02'713.7
2019-Jun-10 03:00N 57°59' E 003°49'713.5
2019-Jun-10 02:29N 58°00' E 003°36'3514.2
2019-Jun-10 00:00N 58°06' E 002°30'8213.7 1018.5 5.4 10.1 6.412.0
2019-Jun-09 18:00N 58°30' E 000°00'8014.3 300 / 41016.3 5.4 16.1 4.911.8
2019-Jun-09 12:23N 58°42' W 002°32'615.7
2019-Jun-09 12:00N 58°42' W 002°43'917.6
2019-Jun-09 11:30N 58°43' W 003°00'918.0
2019-Jun-09 11:00N 58°43' W 003°17'714.7
2019-Jun-09 10:30N 58°43' W 003°32'714.9
2019-Jun-09 10:00N 58°43' W 003°46'714.4
2019-Jun-09 09:30N 58°43' W 003°60'714.3
2019-Jun-09 09:00N 58°43' W 004°14'4013.4
2019-Jun-09 06:00N 58°36' W 005°30'16613.9 020 / 101013.3 5.4 13.1 4.512.1
2019-Jun-08 18:00N 57°54' W 010°36'8413.9 040 / 201011.5 2.2 13.4 9.212.8
2019-Jun-08 12:00N 57°30' W 013°06'8113.6 360 / 171011.2 5.4 13.5 6.413.0
2019-Jun-08 06:00N 57°06' W 015°30'7312.1 010 / 251012.2 5.4 9.9 6.612.0
2019-Jun-08 00:00N 56°42' W 017°36'7712.8 360 / 151014.9 8.8 3.112.0
2019-Jun-07 18:00N 56°18' W 019°48'8814.7 020 / 171015.3 5.4 14.0 2.411.1
2019-Jun-07 12:00N 55°42' W 022°12'   350 / 111016.310.8 11.0 7.010.0
Track history (hours):
 
Tides and Currents Weather Stations Pressure Air Temp Water Temp Dewpoint Dewpoint Depression Visibility Wind Speed Wind Dir Waves Ship Positions

Statengracht

Last reported at 2019-Jun-16 23:25 UTC. Time now 2019-Jun-18 15:42 UTC.
Position N 60°27' E 022°02'.

Length 173 m; beam 25 m.

Type: Cargo ship. MMSI: 244584000.

Date/timePositionNaut miles runAvg speedWind from/ knotsBaromVisibWave heightAir tempDewpointWater temp
2019-Jun-16 23:25N 60°27' E 022°02'0 0.0
2019-Jun-16 22:49N 60°27' E 022°02'0 0.0
2019-Jun-16 19:49N 60°27' E 022°02'  
2019-Jun-13 04:37N 60°13' E 021°42'111.7
2019-Jun-13 04:29N 60°12' E 021°42'511.5
2019-Jun-13 04:01N 60°06' E 021°42'612.3
2019-Jun-13 03:31N 59°60' E 021°42'714.0
2019-Jun-13 03:01N 59°54' E 021°34'714.0
2019-Jun-13 02:30N 59°50' E 021°23'5 9.8
2019-Jun-13 01:59N 59°45' E 021°21'611.6
2019-Jun-13 01:30N 59°40' E 021°18'611.2
2019-Jun-13 01:00N 59°35' E 021°13'510.9
2019-Jun-13 00:30N 59°30' E 021°08'20410.4
2019-Jun-12 04:49N 56°33' E 017°54'1710.8
2019-Jun-12 03:15N 56°23' E 017°30'410.7
2019-Jun-12 02:50N 56°20' E 017°24'910.7
2019-Jun-12 02:00N 56°14' E 017°11'510.6
2019-Jun-12 01:30N 56°11' E 017°03'510.5
2019-Jun-12 01:00N 56°08' E 016°56'510.8
2019-Jun-12 00:30N 56°05' E 016°48'510.7
2019-Jun-12 00:00N 56°01' E 016°41'510.7
2019-Jun-11 23:30N 55°59' E 016°33'510.7
2019-Jun-11 23:00N 55°56' E 016°24'510.6
2019-Jun-11 22:30N 55°54' E 016°16'510.6
2019-Jun-11 22:01N 55°51' E 016°08'510.8
2019-Jun-11 21:30N 55°49' E 015°59'611.1
2019-Jun-11 21:00N 55°46' E 015°50'510.6
2019-Jun-11 20:31N 55°44' E 015°42'510.5
2019-Jun-11 20:00N 55°41' E 015°34'510.8
2019-Jun-11 19:30N 55°38' E 015°25'510.7
2019-Jun-11 19:00N 55°36' E 015°17'510.7
2019-Jun-11 18:30N 55°34' E 015°08'710.6
2019-Jun-11 17:48N 55°30' E 014°57'410.7
2019-Jun-11 17:28N 55°28' E 014°51'1710.9
2019-Jun-11 15:52N 55°17' E 014°29'1012.1
2019-Jun-11 15:00N 55°09' E 014°17'911.2
2019-Jun-11 14:10N 55°10' E 014°01'410.6
2019-Jun-11 13:48N 55°10' E 013°54'3010.9
2019-Jun-11 10:59N 55°13' E 013°01'611.4
2019-Jun-11 10:27N 55°15' E 012°51'511.1
2019-Jun-11 10:00N 55°17' E 012°43'4 8.8
2019-Jun-11 09:30N 55°20' E 012°38'611.2
2019-Jun-11 09:00N 55°26' E 012°40'612.4
2019-Jun-11 08:30N 55°32' E 012°42'4 8.7
2019-Jun-11 08:00N 55°36' E 012°42'4 8.7
2019-Jun-11 07:30N 55°41' E 012°41'510.6
2019-Jun-11 07:00N 55°46' E 012°41'713.4
2019-Jun-11 06:31N 55°53' E 012°40'714.0
2019-Jun-11 06:01N 55°60' E 012°38'5 9.8
2019-Jun-11 05:31N 56°04' E 012°37'5 9.4
2019-Jun-11 05:00N 56°07' E 012°30'812.9
2019-Jun-11 04:23N 56°12' E 012°18'3212.6
2019-Jun-11 01:52N 56°41' E 011°54'613.1
2019-Jun-11 01:23N 56°47' E 011°51'513.0
2019-Jun-11 01:01N 56°51' E 011°48'713.1
2019-Jun-11 00:30N 56°57' E 011°44'713.4
2019-Jun-11 00:00N 57°04' E 011°40'713.2
2019-Jun-10 23:30N 57°10' E 011°35'713.2
2019-Jun-10 23:01N 57°16' E 011°31'713.1
2019-Jun-10 22:31N 57°22' E 011°27'713.3
2019-Jun-10 22:01N 57°28' E 011°22'713.2
2019-Jun-10 21:31N 57°33' E 011°13'612.9
2019-Jun-10 21:01N 57°37' E 011°04'713.3
2019-Jun-10 20:31N 57°42' E 010°55'713.4
2019-Jun-10 20:01N 57°47' E 010°47'510.5
2019-Jun-10 19:30N 57°48' E 010°37'714.2
2019-Jun-10 19:00N 57°48' E 010°24'713.9
2019-Jun-10 18:30N 57°47' E 010°11'713.9
2019-Jun-10 18:01N 57°47' E 009°58'713.6
2019-Jun-10 17:30N 57°46' E 009°45'713.6
2019-Jun-10 17:01N 57°46' E 009°32'713.4
2019-Jun-10 16:30N 57°45' E 009°20'713.7
2019-Jun-10 16:00N 57°44' E 009°07'714.9
2019-Jun-10 15:30N 57°44' E 008°53'714.5
2019-Jun-10 15:00N 57°43' E 008°40'713.7
2019-Jun-10 14:30N 57°42' E 008°27'713.6
2019-Jun-10 14:00N 57°42' E 008°14'713.2
2019-Jun-10 13:30N 57°41' E 008°02'713.2
2019-Jun-10 13:00N 57°41' E 007°49'713.3
2019-Jun-10 12:30N 57°41' E 007°37'713.3
2019-Jun-10 11:58N 57°41' E 007°24'612.9
2019-Jun-10 11:30N 57°41' E 007°13'713.3
2019-Jun-10 11:00N 57°42' E 006°60'713.0
2019-Jun-10 10:29N 57°43' E 006°47'613.1
2019-Jun-10 10:00N 57°43' E 006°36'612.0
2019-Jun-10 09:30N 57°44' E 006°25'611.7
2019-Jun-10 08:58N 57°45' E 006°13'511.4
2019-Jun-10 08:30N 57°46' E 006°03'611.7
2019-Jun-10 08:00N 57°47' E 005°53'611.9
2019-Jun-10 07:29N 57°48' E 005°41'612.8
2019-Jun-10 07:00N 57°49' E 005°30'713.1
2019-Jun-10 06:30N 57°50' E 005°18'713.4
2019-Jun-10 06:00N 57°52' E 005°05'713.7
2019-Jun-10 05:30N 57°53' E 004°52'713.7
2019-Jun-10 05:00N 57°54' E 004°40'713.9
2019-Jun-10 04:30N 57°55' E 004°27'713.8
2019-Jun-10 04:00N 57°57' E 004°14'713.7
2019-Jun-10 03:30N 57°58' E 004°02'713.7
2019-Jun-10 03:00N 57°59' E 003°49'713.5
2019-Jun-10 02:29N 58°00' E 003°36'3514.2
2019-Jun-10 00:00N 58°06' E 002°30'8213.7 1018.5 5.4 10.1 6.412.0
2019-Jun-09 18:00N 58°30' E 000°00'8014.3 300 / 41016.3 5.4 16.1 4.911.8
2019-Jun-09 12:23N 58°42' W 002°32'615.7
2019-Jun-09 12:00N 58°42' W 002°43'917.6
2019-Jun-09 11:30N 58°43' W 003°00'918.0
2019-Jun-09 11:00N 58°43' W 003°17'714.7
2019-Jun-09 10:30N 58°43' W 003°32'714.9
2019-Jun-09 10:00N 58°43' W 003°46'714.4
2019-Jun-09 09:30N 58°43' W 003°60'714.3
2019-Jun-09 09:00N 58°43' W 004°14'4013.4
2019-Jun-09 06:00N 58°36' W 005°30'16613.9 020 / 101013.3 5.4 13.1 4.512.1
2019-Jun-08 18:00N 57°54' W 010°36'8413.9 040 / 201011.5 2.2 13.4 9.212.8
2019-Jun-08 12:00N 57°30' W 013°06'8113.6 360 / 171011.2 5.4 13.5 6.413.0
2019-Jun-08 06:00N 57°06' W 015°30'7312.1 010 / 251012.2 5.4 9.9 6.612.0
2019-Jun-08 00:00N 56°42' W 017°36'7712.8 360 / 151014.9 8.8 3.112.0
2019-Jun-07 18:00N 56°18' W 019°48'8814.7 020 / 171015.3 5.4 14.0 2.411.1
2019-Jun-07 12:00N 55°42' W 022°12'   350 / 111016.310.8 11.0 7.010.0

Dump ship's entire track history